Flight Information

DEPARTURE
EL PASO, TX
Elevation:
3961
Runways:
8R/26L - 9025x150 - ASPH-CONC-F
8L/26R - 5499x75 - CONC-G
4/22 - 12020x150 - ASPH-CONC-F
Active PE Departure:
22 - 26L - 26R
Current PE ATIS:
C
Altimeter:
30.03
Remarks:
R N P APPROACHES AVAILABLE UPON REQUEST.
ATIS:
120.0 915-772-9412
Clearance Delivery:
125
Ground:
121.9
Tower:
EL PASO TOWER 118.3
DESTINATION
,
Elevation:
TPA:
1000 (est.)


6231.6 NM81° True-11° Var70° HDG

Flight Plan:
(click to file on line)

1. Type
2. Aircraft Identification
3. Aircraft Type / Special Equipment
4. True Airspeed
kts
5. Departure Airport
(ICAO code)
6. Arriving Airport
(ICAO code)
7. Cruising Altitude
ft
8. Alternate Airport
(ICAO code)
9. Route of Flight
10. Remarks


00:00:00 Departure ATIS: Destination ATIS:

Clearance Limit:
Route:
Altitude: Expect in minutes
Frequency:
Transponder: (7500 Hijack / 7600 Lost Comms / 7700 Emergency)


KELP 080151Z 25010KT 10SM FEW100 FEW150 BKN250 23/02 A3003 RMK AO2 SLP114 CB DSNT W-NW T02330022
Time: 2020-04-08T01:51:00Z
1586313028
Winds: 250 @ 10 kts
Visibility: 10.0 sm
Clouds (AGL): FEW 10000
FEW 15000
BKN 25000
Temperature: 23.3 C
Dew Point: 2.2 C
Pressure: 30.029528 in Hgbr


Notes:

Data extracted from FAA Digital Chart Supplement. Effective: 0901Z Thursday, Mar 26, 2020 to 0901Z Thursday, May 21, 2020
Current ATIS data is provided courtisy of PilotEdge.